createdAt,value
2023-01-18T00:01:13.880Z,0.40
2023-01-18T00:03:45.073Z,0.40
2023-01-18T00:06:12.872Z,0.40
2023-01-18T00:08:42.565Z,0.40
2023-01-18T00:11:12.834Z,0.40
2023-01-18T00:13:40.652Z,0.40
2023-01-18T00:16:12.577Z,0.30
2023-01-18T00:18:40.308Z,0.40
2023-01-18T00:21:10.784Z,0.40
2023-01-18T00:23:41.986Z,0.40
2023-01-18T00:26:11.403Z,0.40
2023-01-18T00:28:40.113Z,0.40
2023-01-18T00:31:15.802Z,0.40
2023-01-18T00:33:47.095Z,0.40
2023-01-18T00:36:16.483Z,0.40
2023-01-18T00:38:51.441Z,0.40
2023-01-18T00:41:20.030Z,0.40
2023-01-18T00:43:47.797Z,0.40
2023-01-18T00:46:18.481Z,0.40
2023-01-18T00:48:46.348Z,0.50
2023-01-18T00:51:17.092Z,0.50
2023-01-18T00:53:45.252Z,0.50
2023-01-18T00:56:15.766Z,0.50
2023-01-18T00:58:44.301Z,0.50
2023-01-18T01:01:13.021Z,0.50
2023-01-18T01:04:16.372Z,0.50
2023-01-18T01:06:44.495Z,3.80
2023-01-18T01:09:18.605Z,0.40
2023-01-18T01:12:05.602Z,0.30
2023-01-18T01:14:54.876Z,0.30
2023-01-18T01:17:41.453Z,0.30
2023-01-18T01:20:28.581Z,0.30
2023-01-18T01:23:15.582Z,0.30
2023-01-18T01:26:02.048Z,0.30
2023-01-18T01:28:29.660Z,0.30
2023-01-18T01:31:01.611Z,0.30
2023-01-18T01:33:30.916Z,0.30
2023-01-18T01:36:00.564Z,0.30
2023-01-18T01:38:28.668Z,0.20
2023-01-18T01:41:26.637Z,0.20
2023-01-18T01:43:58.878Z,0.20
2023-01-18T01:46:35.366Z,0.20
2023-01-18T01:49:32.803Z,0.20
2023-01-18T01:52:03.035Z,0.20
2023-01-18T01:54:37.104Z,0.20
2023-01-18T01:57:15.623Z,0.20
2023-01-18T01:59:59.742Z,0.20
2023-01-18T02:02:29.042Z,0.20
2023-01-18T02:04:58.130Z,0.20
2023-01-18T02:07:28.980Z,0.20
2023-01-18T02:09:57.759Z,1.10
2023-01-18T02:12:26.406Z,0.20
2023-01-18T02:14:55.445Z,0.20
2023-01-18T02:17:32.791Z,0.20
2023-01-18T02:20:19.611Z,0.20
2023-01-18T02:23:07.245Z,0.30
2023-01-18T02:26:05.328Z,0.30
2023-01-18T02:28:35.758Z,0.40
2023-01-18T02:31:17.877Z,0.40
2023-01-18T02:34:06.197Z,0.40
2023-01-18T02:37:00.139Z,0.50
2023-01-18T02:39:38.402Z,0.60
2023-01-18T02:42:46.249Z,0.60
2023-01-18T02:45:42.392Z,0.60
2023-01-18T02:48:10.939Z,0.60
2023-01-18T02:50:38.517Z,0.60
2023-01-18T02:53:13.671Z,0.60
2023-01-18T02:55:52.112Z,0.60
2023-01-18T02:58:25.484Z,0.60
2023-01-18T03:00:59.986Z,0.60
2023-01-18T03:03:28.723Z,0.60
2023-01-18T03:06:01.674Z,0.60
2023-01-18T03:08:44.991Z,0.60
2023-01-18T03:11:18.792Z,0.70
2023-01-18T03:14:13.932Z,0.70
2023-01-18T03:17:11.267Z,0.70
2023-01-18T03:20:00.989Z,0.70
2023-01-18T03:22:48.343Z,0.70
2023-01-18T03:25:21.062Z,0.70
2023-01-18T03:28:10.793Z,0.70
2023-01-18T03:30:59.370Z,0.70
2023-01-18T03:33:44.853Z,0.60
2023-01-18T03:36:34.951Z,0.70
2023-01-18T03:39:11.199Z,0.60
2023-01-18T03:41:46.740Z,0.60
2023-01-18T03:44:21.635Z,0.60
2023-01-18T03:46:49.586Z,0.70
2023-01-18T03:49:17.933Z,0.60
2023-01-18T03:51:58.535Z,0.70
2023-01-18T03:54:44.564Z,0.60
2023-01-18T03:57:24.947Z,0.60
2023-01-18T03:59:52.583Z,0.70
2023-01-18T04:02:21.697Z,0.70
2023-01-18T04:04:49.612Z,0.70
2023-01-18T04:07:17.175Z,0.80
2023-01-18T04:09:44.761Z,0.70
2023-01-18T04:12:12.320Z,0.80
2023-01-18T04:14:39.940Z,0.80
2023-01-18T04:17:07.424Z,0.80
2023-01-18T04:19:35.006Z,0.80
2023-01-18T04:22:02.509Z,0.80
2023-01-18T04:24:33.915Z,0.80
2023-01-18T04:27:02.279Z,0.80
2023-01-18T04:29:30.336Z,0.80
2023-01-18T04:31:58.028Z,0.80
2023-01-18T04:34:25.680Z,0.80
2023-01-18T04:36:53.659Z,0.80
2023-01-18T04:39:21.376Z,0.80
2023-01-18T04:41:48.984Z,0.80
2023-01-18T04:44:17.308Z,0.80
2023-01-18T04:46:45.024Z,0.80
2023-01-18T04:49:15.598Z,0.80
2023-01-18T04:51:46.988Z,0.80
2023-01-18T04:54:17.239Z,0.80
2023-01-18T04:56:45.255Z,0.80
2023-01-18T04:59:16.744Z,0.80
2023-01-18T05:01:45.274Z,0.80
2023-01-18T05:04:12.831Z,0.80
2023-01-18T05:06:40.469Z,0.70
2023-01-18T05:09:11.422Z,0.80
2023-01-18T05:11:39.007Z,0.70
2023-01-18T05:14:06.670Z,0.70
2023-01-18T05:16:34.764Z,0.70
2023-01-18T05:19:02.396Z,0.70
2023-01-18T05:21:30.032Z,0.70
2023-01-18T05:23:57.571Z,0.70
2023-01-18T05:26:26.132Z,0.80
2023-01-18T05:28:57.613Z,0.80
2023-01-18T05:31:25.404Z,0.80
2023-01-18T05:33:53.252Z,0.80
2023-01-18T05:36:21.110Z,0.80
2023-01-18T05:38:48.619Z,0.80
2023-01-18T05:41:16.390Z,0.80
2023-01-18T05:43:44.206Z,0.80
2023-01-18T05:46:11.868Z,0.80
2023-01-18T05:51:09.865Z,0.80
2023-01-18T05:53:37.765Z,0.70
2023-01-18T05:56:06.953Z,0.80
2023-01-18T05:58:35.372Z,0.80
2023-01-18T06:01:03.196Z,0.80
2023-01-18T06:03:30.915Z,0.80
2023-01-18T06:05:59.344Z,0.80
2023-01-18T06:08:27.112Z,0.70
2023-01-18T06:10:59.276Z,0.70
2023-01-18T06:13:30.165Z,0.70
2023-01-18T06:15:59.224Z,0.70
2023-01-18T06:18:31.507Z,0.70
2023-01-18T06:21:01.649Z,0.70
2023-01-18T06:23:30.736Z,0.70
2023-01-18T06:25:58.873Z,0.70
2023-01-18T06:28:29.082Z,0.70
2023-01-18T06:30:58.031Z,0.60
2023-01-18T06:33:26.399Z,0.60
2023-01-18T06:35:54.110Z,0.60
2023-01-18T06:38:21.708Z,0.60
2023-01-18T06:40:49.482Z,0.60
2023-01-18T06:43:17.114Z,0.60
2023-01-18T06:45:44.784Z,0.70
2023-01-18T06:48:12.454Z,0.60
2023-01-18T06:50:40.271Z,0.60
2023-01-18T06:53:07.824Z,0.60
2023-01-18T06:55:35.799Z,0.60
2023-01-18T06:58:03.426Z,0.60
2023-01-18T07:00:30.998Z,0.60
2023-01-18T07:02:59.097Z,0.60
2023-01-18T07:05:26.992Z,0.50
2023-01-18T07:07:54.699Z,0.60
2023-01-18T07:10:22.363Z,0.60
2023-01-18T07:12:50.945Z,0.60
2023-01-18T07:15:22.915Z,0.70
2023-01-18T07:17:51.021Z,0.60
2023-01-18T07:20:19.919Z,0.70
2023-01-18T07:22:52.137Z,0.70
2023-01-18T07:25:20.723Z,0.60
2023-01-18T07:27:49.157Z,0.60
2023-01-18T07:30:17.542Z,0.60
2023-01-18T07:32:49.859Z,0.60
2023-01-18T07:35:22.280Z,0.50
2023-01-18T07:37:52.305Z,0.50
2023-01-18T07:40:21.322Z,0.50
2023-01-18T07:42:50.041Z,0.50
2023-01-18T07:45:17.812Z,0.50
2023-01-18T07:47:46.413Z,0.50
2023-01-18T07:50:14.485Z,0.50
2023-01-18T07:52:42.218Z,0.40
2023-01-18T07:55:09.947Z,0.40
2023-01-18T07:57:37.525Z,0.30
2023-01-18T08:00:07.327Z,0.30
2023-01-18T08:02:40.469Z,0.30
2023-01-18T08:05:10.557Z,0.30
2023-01-18T08:07:38.227Z,0.20
2023-01-18T08:10:06.179Z,0.20
2023-01-18T08:12:33.759Z,0.20
2023-01-18T08:15:01.410Z,0.20
2023-01-18T08:17:29.796Z,0.20
2023-01-18T08:19:57.478Z,0.20
2023-01-18T08:22:25.053Z,0.20
2023-01-18T08:24:52.886Z,0.10
2023-01-18T08:27:20.475Z,0.20
2023-01-18T08:29:48.446Z,0.20
2023-01-18T08:32:16.170Z,0.20
2023-01-18T08:34:43.854Z,0.20
2023-01-18T08:37:11.952Z,0.20
2023-01-18T08:39:39.631Z,0.20
2023-01-18T08:42:07.204Z,0.20
2023-01-18T08:44:34.800Z,0.30
2023-01-18T08:47:03.324Z,0.30
2023-01-18T08:49:32.770Z,0.30
2023-01-18T08:52:00.443Z,0.30
2023-01-18T08:54:28.260Z,0.40
2023-01-18T08:56:55.920Z,0.40
2023-01-18T08:59:23.871Z,0.50
2023-01-18T09:01:51.596Z,0.60
2023-01-18T09:04:19.139Z,0.60
2023-01-18T09:06:51.367Z,0.60
2023-01-18T09:09:19.164Z,0.70
2023-01-18T09:11:46.665Z,0.70
2023-01-18T09:14:15.483Z,0.80
2023-01-18T09:16:43.162Z,0.80
2023-01-18T09:19:11.365Z,0.90
2023-01-18T09:21:40.372Z,1.00
2023-01-18T09:24:08.648Z,1.00
2023-01-18T09:26:36.141Z,1.00
2023-01-18T09:29:03.776Z,1.10
2023-01-18T09:31:32.487Z,1.10
2023-01-18T09:34:17.895Z,1.10
2023-01-18T09:36:50.331Z,1.10
2023-01-18T09:39:19.843Z,1.10
2023-01-18T09:41:53.874Z,1.10
2023-01-18T09:44:36.181Z,1.10
2023-01-18T09:47:25.945Z,1.20
2023-01-18T09:49:57.738Z,1.10
2023-01-18T09:52:40.564Z,1.10
2023-01-18T09:55:42.137Z,1.00
2023-01-18T09:58:41.671Z,0.90
2023-01-18T10:01:14.597Z,0.90
2023-01-18T10:03:53.547Z,0.90
2023-01-18T10:06:43.445Z,0.90
2023-01-18T10:09:25.006Z,0.80
2023-01-18T10:12:08.670Z,0.80
2023-01-18T10:14:56.393Z,0.80
2023-01-18T10:17:42.783Z,0.80
2023-01-18T10:20:28.535Z,0.90
2023-01-18T10:23:02.867Z,0.90
2023-01-18T10:25:47.205Z,1.00
2023-01-18T10:28:34.946Z,1.10
2023-01-18T10:31:20.740Z,1.20
2023-01-18T10:33:57.195Z,1.20
2023-01-18T10:36:41.848Z,1.20
2023-01-18T10:39:36.621Z,1.20
2023-01-18T10:42:16.692Z,1.30
2023-01-18T10:44:44.765Z,1.30
2023-01-18T10:47:17.788Z,1.40
2023-01-18T10:49:48.515Z,1.50
2023-01-18T10:52:26.168Z,1.60
2023-01-18T10:55:01.922Z,1.70
2023-01-18T10:57:43.443Z,2.00
2023-01-18T11:00:33.992Z,2.00
2023-01-18T11:03:05.038Z,2.20
2023-01-18T11:05:44.557Z,2.30
2023-01-18T11:08:34.719Z,2.30
2023-01-18T11:11:06.402Z,2.50
2023-01-18T11:13:43.535Z,2.60
2023-01-18T11:16:23.791Z,2.70
2023-01-18T11:19:01.907Z,2.90
2023-01-18T11:21:52.561Z,2.90
2023-01-18T11:24:32.220Z,2.90
2023-01-18T11:27:02.561Z,3.00
2023-01-18T11:29:35.880Z,3.10
2023-01-18T11:32:15.773Z,3.10
2023-01-18T11:34:46.518Z,3.20
2023-01-18T11:37:36.074Z,3.30
2023-01-18T11:40:29.842Z,3.20
2023-01-18T11:43:19.411Z,3.20
2023-01-18T11:46:18.313Z,3.20
2023-01-18T11:48:59.666Z,3.30
2023-01-18T11:51:49.194Z,3.40
2023-01-18T11:54:57.024Z,3.50
2023-01-18T11:57:25.121Z,3.80
2023-01-18T11:59:52.661Z,4.20
2023-01-18T12:02:45.461Z,4.40
2023-01-18T12:05:28.517Z,5.10
2023-01-18T12:08:13.898Z,5.40
2023-01-18T12:11:12.253Z,5.40
2023-01-18T12:13:45.780Z,5.70
2023-01-18T12:16:50.677Z,6.00
2023-01-18T12:19:47.501Z,6.20
2023-01-18T12:22:22.429Z,6.40
2023-01-18T12:25:01.997Z,6.30
2023-01-18T12:27:38.554Z,6.30
2023-01-18T12:30:14.040Z,6.30
2023-01-18T12:33:09.050Z,6.20
2023-01-18T12:35:56.341Z,6.10
2023-01-18T12:38:31.466Z,6.10
2023-01-18T12:41:32.496Z,6.10
2023-01-18T12:44:26.195Z,6.00
2023-01-18T12:47:11.754Z,5.80
2023-01-18T12:49:46.638Z,5.50
2023-01-18T12:52:19.382Z,5.30
2023-01-18T12:55:01.028Z,5.20
2023-01-18T12:57:29.961Z,5.00
2023-01-18T13:00:09.265Z,4.90
2023-01-18T13:02:36.834Z,4.70
2023-01-18T13:05:10.585Z,4.60
2023-01-18T13:07:42.790Z,4.50
2023-01-18T13:10:23.515Z,4.40
2023-01-18T13:12:52.176Z,4.30
2023-01-18T13:16:00.352Z,4.30
2023-01-18T13:18:36.847Z,4.30
2023-01-18T13:21:07.111Z,4.30
2023-01-18T13:23:49.592Z,4.30
2023-01-18T13:26:27.518Z,4.50
2023-01-18T13:29:20.686Z,4.50
2023-01-18T13:31:49.473Z,4.80
2023-01-18T13:34:30.985Z,4.80
2023-01-18T13:37:13.857Z,4.80
2023-01-18T13:39:46.948Z,4.70
2023-01-18T13:42:20.723Z,4.60
2023-01-18T13:44:50.190Z,4.50
2023-01-18T13:47:36.121Z,4.30
2023-01-18T13:50:05.267Z,4.20
2023-01-18T13:52:38.339Z,4.10
2023-01-18T13:55:26.100Z,4.10
2023-01-18T13:57:55.558Z,4.20
2023-01-18T14:00:25.606Z,4.20
2023-01-18T14:03:02.141Z,4.20
2023-01-18T14:05:38.827Z,4.20
2023-01-18T14:08:06.864Z,4.20
2023-01-18T14:10:37.791Z,4.10
2023-01-18T14:13:08.332Z,4.10
2023-01-18T14:15:57.657Z,4.00
2023-01-18T14:18:27.739Z,4.00
2023-01-18T14:21:14.858Z,4.00
2023-01-18T14:24:01.262Z,4.00
2023-01-18T14:26:31.170Z,3.90
2023-01-18T14:29:00.678Z,3.90
2023-01-18T14:31:38.437Z,3.90
2023-01-18T14:34:29.468Z,4.00
2023-01-18T14:36:57.964Z,4.10
2023-01-18T14:39:26.027Z,4.30
2023-01-18T14:41:57.725Z,4.60
2023-01-18T14:44:35.513Z,4.70
2023-01-18T14:47:23.307Z,4.70
2023-01-18T14:49:53.385Z,4.70
2023-01-18T14:52:23.534Z,4.50
2023-01-18T14:54:55.978Z,4.50
2023-01-18T14:57:24.769Z,4.30
2023-01-18T14:59:55.337Z,4.30
2023-01-18T15:02:29.319Z,4.10
2023-01-18T15:05:17.989Z,4.10
2023-01-18T15:07:54.051Z,4.10
2023-01-18T15:10:24.210Z,4.00
2023-01-18T15:12:58.819Z,4.00
2023-01-18T15:15:37.146Z,4.00
2023-01-18T15:18:11.560Z,4.00
2023-01-18T15:20:52.105Z,3.90
2023-01-18T15:23:20.104Z,3.90
2023-01-18T15:25:51.415Z,3.90
2023-01-18T15:28:23.825Z,3.90
2023-01-18T15:30:57.563Z,3.90
2023-01-18T15:33:27.435Z,3.90
2023-01-18T15:35:57.609Z,3.80
2023-01-18T15:38:25.313Z,3.70
2023-01-18T15:41:00.317Z,3.70
2023-01-18T15:43:33.398Z,3.70
2023-01-18T15:46:01.934Z,3.70
2023-01-18T15:48:35.772Z,3.70
2023-01-18T15:51:08.488Z,3.70
2023-01-18T15:53:43.489Z,3.80
2023-01-18T15:56:19.830Z,3.80
2023-01-18T15:58:50.253Z,3.80
2023-01-18T16:01:28.164Z,3.80
2023-01-18T16:04:18.530Z,3.80
2023-01-18T16:06:46.323Z,3.80
2023-01-18T16:09:15.923Z,3.90
2023-01-18T16:11:44.170Z,3.80
2023-01-18T16:14:32.653Z,3.80
2023-01-18T16:17:16.408Z,3.80
2023-01-18T16:19:53.351Z,3.80
2023-01-18T16:22:21.024Z,3.80
2023-01-18T16:24:56.437Z,3.80
2023-01-18T16:27:26.574Z,3.70
2023-01-18T16:30:01.193Z,3.70
2023-01-18T16:32:34.425Z,3.70
2023-01-18T16:35:09.981Z,3.70
2023-01-18T16:37:41.474Z,3.50
2023-01-18T16:40:12.352Z,3.40
2023-01-18T16:42:59.708Z,3.40
2023-01-18T16:45:33.597Z,3.40
2023-01-18T16:48:01.677Z,3.40
2023-01-18T16:50:29.949Z,3.30
2023-01-18T16:52:57.784Z,3.30
2023-01-18T16:55:28.735Z,3.20
2023-01-18T16:57:56.378Z,3.10
2023-01-18T17:00:28.938Z,3.10
2023-01-18T17:02:56.756Z,3.00
2023-01-18T17:05:26.942Z,2.90
2023-01-18T17:07:54.757Z,2.90
2023-01-18T17:10:38.408Z,2.80
2023-01-18T17:13:06.405Z,2.80
2023-01-18T17:15:40.892Z,2.70
2023-01-18T17:18:17.236Z,2.60
2023-01-18T17:20:48.462Z,2.50
2023-01-18T17:23:17.125Z,2.50
2023-01-18T17:25:45.285Z,2.40
2023-01-18T17:28:15.081Z,2.40
2023-01-18T17:30:46.338Z,2.30
2023-01-18T17:33:19.552Z,2.30
2023-01-18T17:35:49.297Z,2.30
2023-01-18T17:38:24.260Z,2.30
2023-01-18T17:43:33.473Z,2.20
2023-01-18T17:46:08.058Z,2.20
2023-01-18T17:48:37.525Z,2.20
2023-01-18T17:51:16.240Z,2.20
2023-01-18T17:53:44.050Z,2.30
2023-01-18T17:56:17.051Z,2.30
2023-01-18T17:58:49.421Z,2.30
2023-01-18T18:01:18.019Z,2.40
2023-01-18T18:03:50.259Z,2.40
2023-01-18T18:06:30.341Z,2.60
2023-01-18T18:09:00.464Z,2.60
2023-01-18T18:11:28.331Z,2.70
2023-01-18T18:14:02.262Z,2.00
2023-01-18T18:16:31.541Z,2.60
2023-01-18T18:19:00.038Z,2.60
2023-01-18T18:21:27.811Z,2.60
2023-01-18T18:23:55.835Z,2.50
2023-01-18T18:26:24.549Z,2.40
2023-01-18T18:28:52.331Z,2.30
2023-01-18T18:31:21.021Z,2.20
2023-01-18T18:33:49.015Z,2.10
2023-01-18T18:36:16.724Z,2.10
2023-01-18T18:38:44.460Z,2.10
2023-01-18T18:41:12.313Z,2.00
2023-01-18T18:43:39.927Z,1.90
2023-01-18T18:46:07.775Z,1.90
2023-01-18T18:48:35.445Z,1.80
2023-01-18T18:51:03.385Z,1.80
2023-01-18T18:53:38.211Z,1.80
2023-01-18T18:56:09.427Z,1.80
2023-01-18T18:58:38.064Z,1.70
2023-01-18T19:01:17.472Z,1.80
2023-01-18T19:03:45.129Z,1.70
2023-01-18T19:06:12.933Z,1.70
2023-01-18T19:08:40.544Z,1.60
2023-01-18T19:11:08.211Z,1.60
2023-01-18T19:13:36.293Z,1.60
2023-01-18T19:16:05.052Z,1.50
2023-01-18T19:18:33.130Z,1.50
2023-01-18T19:21:00.935Z,1.40
2023-01-18T19:23:28.742Z,1.40
2023-01-18T19:25:56.880Z,1.40
2023-01-18T19:28:24.656Z,1.30
2023-01-18T19:30:52.299Z,1.20
2023-01-18T19:33:19.932Z,1.20
2023-01-18T19:35:49.015Z,1.10
2023-01-18T19:38:17.111Z,1.20
2023-01-18T19:40:48.109Z,1.20
2023-01-18T19:43:15.924Z,1.30
2023-01-18T19:45:43.550Z,1.40
2023-01-18T19:48:11.200Z,1.40
2023-01-18T19:50:39.094Z,1.40
2023-01-18T19:53:06.760Z,1.40
2023-01-18T19:55:36.461Z,1.30
2023-01-18T19:58:04.180Z,1.20
2023-01-18T20:00:32.142Z,1.20
2023-01-18T20:03:00.569Z,1.10
2023-01-18T20:05:28.571Z,1.10
2023-01-18T20:07:56.338Z,1.10
2023-01-18T20:10:24.162Z,1.10
2023-01-18T20:12:55.616Z,1.10
2023-01-18T20:15:23.300Z,1.20
2023-01-18T20:17:51.103Z,1.30
2023-01-18T20:20:31.700Z,1.20
2023-01-18T20:23:03.022Z,1.30
2023-01-18T20:25:34.507Z,1.30
2023-01-18T20:28:02.310Z,1.30
2023-01-18T20:30:30.028Z,1.40
2023-01-18T20:32:58.356Z,1.40
2023-01-18T20:35:27.522Z,1.50
2023-01-18T20:37:55.652Z,1.50
2023-01-18T20:40:23.623Z,1.60
2023-01-18T20:42:54.709Z,1.70
2023-01-18T20:45:22.527Z,1.70
2023-01-18T20:47:53.315Z,1.80
2023-01-18T20:50:23.305Z,1.80
2023-01-18T20:52:52.709Z,2.60
2023-01-18T20:55:21.180Z,1.80
2023-01-18T20:57:54.645Z,1.90
2023-01-18T21:00:23.861Z,1.90
2023-01-18T21:02:51.670Z,1.80
2023-01-18T21:05:19.389Z,1.80
2023-01-18T21:07:47.176Z,1.80
2023-01-18T21:10:14.824Z,1.70
2023-01-18T21:12:42.520Z,1.70
2023-01-18T21:15:10.553Z,1.70
2023-01-18T21:17:39.768Z,1.70
2023-01-18T21:20:08.111Z,1.60
2023-01-18T21:22:35.757Z,1.60
2023-01-18T21:25:03.899Z,1.60
2023-01-18T21:27:33.271Z,1.50
2023-01-18T21:30:01.016Z,1.40
2023-01-18T21:32:29.024Z,1.40
2023-01-18T21:34:56.662Z,1.10
2023-01-18T21:37:24.555Z,1.10
2023-01-18T21:39:52.197Z,1.00
2023-01-18T21:42:38.561Z,0.90
2023-01-18T21:45:25.191Z,0.80
2023-01-18T21:47:52.811Z,0.70
2023-01-18T21:50:38.793Z,0.60
2023-01-18T21:53:32.442Z,0.60
2023-01-18T21:56:00.541Z,0.40
2023-01-18T21:58:46.825Z,0.40
2023-01-18T22:01:17.356Z,0.30
2023-01-18T22:04:04.181Z,0.30
2023-01-18T22:06:32.137Z,0.20
2023-01-18T22:08:59.849Z,0.20
2023-01-18T22:11:28.003Z,0.10
2023-01-18T22:13:55.721Z,0.10
2023-01-18T22:16:27.940Z,0.00
2023-01-18T22:18:59.359Z,-0.10
2023-01-18T22:21:27.507Z,-0.10
2023-01-18T22:26:25.432Z,-0.10
2023-01-18T22:28:53.453Z,-0.10
2023-01-18T22:31:21.063Z,-0.20
2023-01-18T22:33:49.091Z,-0.30
2023-01-18T22:36:17.917Z,-0.30
2023-01-18T22:38:46.161Z,-0.30
2023-01-18T22:41:16.940Z,-0.40
2023-01-18T22:43:45.018Z,-0.40
2023-01-18T22:46:15.726Z,-0.40
2023-01-18T22:48:44.523Z,-0.50
2023-01-18T22:51:18.149Z,-0.50
2023-01-18T22:53:46.285Z,-0.50
2023-01-18T22:56:23.089Z,-0.50
2023-01-18T22:58:52.241Z,-0.50
2023-01-18T23:01:26.944Z,-0.50
2023-01-18T23:03:59.765Z,-0.50
2023-01-18T23:06:28.996Z,-0.50
2023-01-18T23:08:56.900Z,-0.50
2023-01-18T23:11:27.086Z,-0.50
2023-01-18T23:14:16.113Z,-0.50
2023-01-18T23:17:03.078Z,-0.50
2023-01-18T23:19:31.227Z,-0.50
2023-01-18T23:21:59.026Z,-0.50
2023-01-18T23:24:27.021Z,-0.50
2023-01-18T23:26:54.639Z,-0.50
2023-01-18T23:29:22.306Z,-0.50
2023-01-18T23:31:50.011Z,-0.50
2023-01-18T23:34:17.798Z,-0.50
2023-01-18T23:36:45.886Z,-0.50
2023-01-18T23:39:31.774Z,-0.60
2023-01-18T23:42:18.193Z,-0.60
2023-01-18T23:45:04.423Z,-0.60
2023-01-18T23:47:50.978Z,-0.60
2023-01-18T23:50:37.639Z,-0.70
2023-01-18T23:53:24.239Z,-0.70
2023-01-18T23:55:54.938Z,-0.70
2023-01-18T23:58:22.753Z,-0.80
